Time;durP1;ratioP1;P1;durP2;ratioP2;P2;SDS_P1;SDS_P2;PMS_P1;PMS_P2;Temp;Humidity;BMP_temperature;BMP_pressure;BME280_temperature;BME280_humidity;BME280_pressure;Samples;Min_cycle;Max_cycle;Signal;HPM_P1;HPM_P2
2021/11/19 00:00:00;;;;;;;;;;;;;;;21.98;53.74;100392.53;2082886;28;1906;-61
2021/11/19 00:01:08;;;;;;;;;;;;;;;21.99;51.79;100390.72;2083077;28;985;-61
2021/11/19 00:02:08;;;;;;;;;;;;;;;22.09;49.25;100394.72;2082999;28;1001;-60
2021/11/19 00:03:09;;;;;;;;;;;;;;;22.08;50.78;100398.34;2082984;28;814;-60
2021/11/19 00:04:09;;;;;;;;;;;;;;;22.09;50.37;100388.47;2083556;28;993;-61
2021/11/19 00:05:10;;;;;;;;;;;;;;;22.11;51.41;100398.22;2084701;28;981;-60
2021/11/19 00:06:10;;;;;;;;;;;;;;;22.05;50.21;100393.13;2084473;28;842;-60
2021/11/19 00:07:11;;;;;;;;;;;;;;;22.00;51.50;100393.31;2084665;28;992;-61
2021/11/19 00:08:11;;;;;;;;;;;;;;;21.99;52.63;100388.03;2084561;28;997;-60
2021/11/19 00:09:12;;;;;;;;;;;;;;;21.99;51.51;100394.28;2084598;28;822;-60
2021/11/19 00:10:12;;;;;;;;;;;;;;;21.99;51.07;100391.56;2084653;28;977;-61
2021/11/19 00:11:13;;;;;;;;;;;;;;;21.99;52.72;100382.63;2084605;28;795;-60
2021/11/19 00:12:13;;;;;;;;;;;;;;;21.96;52.04;100370.16;2084569;28;871;-60
2021/11/19 00:13:14;;;;;;;;;;;;;;;21.94;52.36;100372.03;2084608;28;863;-61
2021/11/19 00:14:14;;;;;;;;;;;;;;;21.98;51.62;100373.66;2084427;28;1052;-60
2021/11/19 00:15:15;;;;;;;;;;;;;;;21.97;51.23;100373.72;2084621;28;812;-60
2021/11/19 00:16:17;;;;;;;;;;;;;;;21.97;51.08;100373.72;2084506;28;973;-61
2021/11/19 00:17:17;;;;;;;;;;;;;;;21.94;51.58;100377.44;2083625;28;801;-60
2021/11/19 00:18:18;;;;;;;;;;;;;;;21.89;51.76;100372.25;2083988;28;818;-60
2021/11/19 00:19:18;;;;;;;;;;;;;;;21.80;52.51;100366.41;2084440;28;1894;-61
2021/11/19 00:20:20;;;;;;;;;;;;;;;21.80;53.11;100372.69;2084346;28;917;-60
2021/11/19 00:21:21;;;;;;;;;;;;;;;21.82;50.39;100365.41;2084525;28;795;-60
2021/11/19 00:22:22;;;;;;;;;;;;;;;21.77;52.51;100367.44;2084505;28;857;-61
2021/11/19 00:23:22;;;;;;;;;;;;;;;21.78;51.52;100363.78;2084525;28;993;-60
2021/11/19 00:24:24;;;;;;;;;;;;;;;21.78;52.72;100363.78;2084544;28;863;-60
2021/11/19 00:25:24;;;;;;;;;;;;;;;21.81;52.92;100369.03;2084375;28;1369;-61
2021/11/19 00:26:24;;;;;;;;;;;;;;;21.87;50.18;100366.06;2084471;28;1060;-60
2021/11/19 00:27:25;;;;;;;;;;;;;;;21.88;51.44;100361.53;2084439;28;1077;-60
2021/11/19 00:28:26;;;;;;;;;;;;;;;21.90;52.53;100357.84;2084229;28;1122;-61
2021/11/19 00:29:26;;;;;;;;;;;;;;;21.82;53.44;100348.34;2084529;28;831;-60
2021/11/19 00:30:27;;;;;;;;;;;;;;;21.88;50.67;100348.03;2084416;28;1036;-60
2021/11/19 00:31:28;;;;;;;;;;;;;;;21.81;51.65;100341.19;2084247;28;657;-60
2021/11/19 00:32:28;;;;;;;;;;;;;;;21.77;55.26;100344.06;2084448;28;812;-60
2021/11/19 00:33:30;;;;;;;;;;;;;;;21.81;51.82;100343.88;2084291;28;897;-60
2021/11/19 00:34:30;;;;;;;;;;;;;;;21.84;50.03;100355.41;2084231;28;871;-60
2021/11/19 00:35:31;;;;;;;;;;;;;;;21.77;54.69;100352.16;2084407;28;851;-61
2021/11/19 00:36:32;;;;;;;;;;;;;;;21.79;52.41;100359.25;2083811;28;1304;-60
2021/11/19 00:37:32;;;;;;;;;;;;;;;21.75;50.49;100354.03;2075661;28;863;-61
2021/11/19 00:38:32;;;;;;;;;;;;;;;21.76;50.42;100353.09;2088750;28;1059;-61
2021/11/19 00:39:33;;;;;;;;;;;;;;;21.74;53.17;100356.78;2084055;28;1902;-60
2021/11/19 00:40:35;;;;;;;;;;;;;;;21.79;51.02;100360.16;2084363;28;803;-61
2021/11/19 00:41:36;;;;;;;;;;;;;;;21.73;52.12;100355.94;2084286;28;1045;-60
2021/11/19 00:42:36;;;;;;;;;;;;;;;21.74;52.02;100357.69;2084377;28;767;-60
2021/11/19 00:43:37;;;;;;;;;;;;;;;21.77;52.15;100364.72;2084307;28;993;-60
2021/11/19 00:44:38;;;;;;;;;;;;;;;21.70;51.38;100363.25;2084287;28;1005;-61
2021/11/19 00:45:38;;;;;;;;;;;;;;;21.73;51.34;100366.72;2084226;28;835;-61
2021/11/19 00:46:40;;;;;;;;;;;;;;;21.76;50.02;100353.09;2084218;28;1120;-61
2021/11/19 00:47:40;;;;;;;;;;;;;;;21.68;52.05;100357.97;2084339;28;1368;-61
2021/11/19 00:48:40;;;;;;;;;;;;;;;21.72;51.29;100348.78;2084299;28;860;-62
2021/11/19 00:49:42;;;;;;;;;;;;;;;21.71;50.02;100355.13;2084321;28;847;-61
2021/11/19 00:50:47;;;;;;;;;;;;;;;21.74;50.36;100356.78;2084311;28;837;-61
2021/11/19 00:51:48;;;;;;;;;;;;;;;21.67;51.70;100355.31;2084161;28;803;-61
2021/11/19 00:52:48;;;;;;;;;;;;;;;21.70;50.32;100358.75;2084106;28;1255;-61
2021/11/19 00:53:50;;;;;;;;;;;;;;;21.66;52.66;100354.44;2084225;28;914;-61
2021/11/19 00:54:50;;;;;;;;;;;;;;;21.71;51.44;100360.50;2084247;28;775;-61
2021/11/19 00:55:50;;;;;;;;;;;;;;;21.72;49.82;100353.28;2084217;28;847;-61
2021/11/19 00:56:53;;;;;;;;;;;;;;;21.72;52.08;100353.28;2084105;28;1288;-61
2021/11/19 00:57:53;;;;;;;;;;;;;;;21.68;52.74;100355.25;2084255;28;1107;-61
2021/11/19 00:58:54;;;;;;;;;;;;;;;21.69;50.62;100358.81;2084267;28;764;-61
2021/11/19 00:59:54;;;;;;;;;;;;;;;21.75;49.88;100347.75;2083784;28;1902;-61
2021/11/19 01:00:56;;;;;;;;;;;;;;;21.71;49.64;100360.50;2084139;28;1037;-61
2021/11/19 01:02:07;;;;;;;;;;;;;;;21.71;51.61;100346.13;2084175;28;1057;-61
2021/11/19 01:03:07;;;;;;;;;;;;;;;21.66;51.75;100354.44;2084328;28;776;-60
2021/11/19 01:04:08;;;;;;;;;;;;;;;21.69;50.79;100353.41;2084133;28;922;-61
2021/11/19 01:05:08;;;;;;;;;;;;;;;21.65;51.92;100354.50;2084190;28;965;-61
2021/11/19 01:06:09;;;;;;;;;;;;;;;21.61;51.48;100353.75;2084080;28;929;-61
2021/11/19 01:07:10;;;;;;;;;;;;;;;21.61;50.97;100360.00;2084222;28;882;-61
2021/11/19 01:08:10;;;;;;;;;;;;;;;21.65;51.99;100365.28;2084153;28;894;-61
2021/11/19 01:09:12;;;;;;;;;;;;;;;21.64;52.90;100360.84;2084175;28;848;-61
2021/11/19 01:10:15;;;;;;;;;;;;;;;21.65;51.85;100360.78;2083876;28;1497;-61
2021/11/19 01:11:16;;;;;;;;;;;;;;;21.58;51.04;100364.66;2084116;28;1299;-61
2021/11/19 01:12:18;;;;;;;;;;;;;;;21.48;52.88;100362.38;2084064;28;933;-60
2021/11/19 01:13:18;;;;;;;;;;;;;;;21.55;51.48;100356.72;2083820;28;760;-61
2021/11/19 01:14:21;;;;;;;;;;;;;;;21.52;52.17;100352.31;2084220;28;892;-60
2021/11/19 01:15:24;;;;;;;;;;;;;;;21.56;50.31;100351.25;2083707;28;825;-61
2021/11/19 01:16:30;;;;;;;;;;;;;;;21.61;51.88;100351.06;2083603;28;847;-61
2021/11/19 01:17:33;;;;;;;;;;;;;;;21.60;50.51;100346.63;2083958;28;1925;-61
2021/11/19 01:18:35;;;;;;;;;;;;;;;21.62;51.22;100350.16;2083770;28;1060;-61
2021/11/19 01:19:56;;;;;;;;;;;;;;;21.56;52.22;100342.31;2083958;28;1951;-60
2021/11/19 01:21:08;;;;;;;;;;;;;;;21.58;50.81;100351.19;2083863;28;1175;-61
2021/11/19 01:22:11;;;;;;;;;;;;;;;21.52;51.71;100346.06;2084046;28;973;-61
2021/11/19 01:23:12;;;;;;;;;;;;;;;21.45;53.26;100350.88;2084136;28;803;-61
2021/11/19 01:24:14;;;;;;;;;;;;;;;21.53;50.63;100337.91;2083990;28;795;-61
2021/11/19 01:25:18;;;;;;;;;;;;;;;21.57;52.22;100339.53;2084055;28;993;-61
2021/11/19 01:26:20;;;;;;;;;;;;;;;21.51;53.39;100334.41;2083927;28;727;-61
2021/11/19 01:27:22;;;;;;;;;;;;;;;21.47;51.39;100325.59;2083994;28;1055;-61
2021/11/19 01:28:22;;;;;;;;;;;;;;;21.56;51.24;100332.38;2084000;28;1024;-61
2021/11/19 01:29:23;;;;;;;;;;;;;;;21.64;50.02;100340.16;2083888;28;1012;-61
2021/11/19 01:30:43;;;;;;;;;;;;;;;21.60;50.87;100343.91;2083701;28;1195;-61
2021/11/19 01:32:04;;;;;;;;;;;;;;;21.51;51.21;100344.31;2083624;28;1108;-61
2021/11/19 01:33:04;;;;;;;;;;;;;;;21.48;50.43;100345.34;2074742;28;1240;-61
2021/11/19 01:34:05;;;;;;;;;;;;;;;21.46;51.21;100340.03;2074837;28;1012;-61
2021/11/19 01:35:06;;;;;;;;;;;;;;;21.50;51.07;100343.44;2074709;28;1070;-61
2021/11/19 01:36:06;;;;;;;;;;;;;;;21.46;52.73;100342.72;2074777;28;1123;-61
2021/11/19 01:37:08;;;;;;;;;;;;;;;21.47;52.37;100333.69;2074933;28;822;-61
2021/11/19 01:38:09;;;;;;;;;;;;;;;21.50;51.07;100334.50;2074335;28;1355;-61
2021/11/19 01:39:10;;;;;;;;;;;;;;;21.53;51.04;100327.13;2074787;28;1875;-61
2021/11/19 01:40:12;;;;;;;;;;;;;;;21.55;50.49;100327.06;2074850;28;886;-61
2021/11/19 01:41:17;;;;;;;;;;;;;;;21.53;51.25;100326.28;2074852;28;997;-62
2021/11/19 01:42:26;;;;;;;;;;;;;;;21.41;52.30;100328.56;2074748;28;881;-61
2021/11/19 01:43:27;;;;;;;;;;;;;;;21.46;52.90;100323.84;2074526;28;847;-61
2021/11/19 01:44:34;;;;;;;;;;;;;;;21.43;51.12;100318.59;2074710;28;800;-60
2021/11/19 01:45:39;;;;;;;;;;;;;;;21.42;50.97;100314.16;2074841;28;977;-60
2021/11/19 01:46:41;;;;;;;;;;;;;;;21.40;51.84;100321.44;2074587;28;1009;-59
2021/11/19 01:47:44;;;;;;;;;;;;;;;21.42;52.02;100326.78;2074302;28;1048;-60
2021/11/19 01:48:46;;;;;;;;;;;;;;;21.38;52.38;100317.94;2066622;28;811;-59
2021/11/19 01:49:47;;;;;;;;;;;;;;;21.46;51.47;100321.16;2066687;28;914;-58
2021/11/19 01:50:56;;;;;;;;;;;;;;;21.47;51.84;100320.22;2074738;28;1001;-57
2021/11/19 01:52:02;;;;;;;;;;;;;;;21.48;51.96;100316.56;2074701;28;931;-57
2021/11/19 01:53:14;;;;;;;;;;;;;;;21.48;51.75;100316.56;2074636;28;1318;-57
2021/11/19 01:54:21;;;;;;;;;;;;;;;21.51;51.28;100320.06;2074709;28;777;-57
2021/11/19 01:55:24;;;;;;;;;;;;;;;21.47;51.03;100324.75;2074767;28;875;-59
2021/11/19 01:56:40;;;;;;;;;;;;;;;21.45;51.97;100330.19;2074510;28;1281;-60
2021/11/19 01:57:43;;;;;;;;;;;;;;;21.51;51.66;100337.09;2074329;28;1460;-60
2021/11/19 01:58:49;;;;;;;;;;;;;;;21.48;53.15;100343.53;2074646;28;1410;-60
2021/11/19 01:59:49;;;;;;;;;;;;;;;21.38;52.51;100347.56;2074519;28;1906;-60
2021/11/19 02:00:54;;;;;;;;;;;;;;;21.35;52.61;100357.63;2074752;28;885;-60
2021/11/19 02:01:57;;;;;;;;;;;;;;;21.40;51.99;100355.59;2074598;28;2178;-60
2021/11/19 02:02:58;;;;;;;;;;;;;;;21.42;52.20;100348.31;2074346;28;827;-60
2021/11/19 02:04:01;;;;;;;;;;;;;;;21.43;51.50;100355.47;2074609;28;1118;-60
2021/11/19 02:05:10;;;;;;;;;;;;;;;21.44;51.63;100365.28;2074645;28;867;-60
2021/11/19 02:06:16;;;;;;;;;;;;;;;21.39;51.25;100362.78;2074602;28;1159;-60
2021/11/19 02:07:21;;;;;;;;;;;;;;;21.40;51.65;100366.38;2074718;28;847;-60
2021/11/19 02:08:23;;;;;;;;;;;;;;;21.42;51.73;100368.03;2074306;28;993;-60
2021/11/19 02:09:31;;;;;;;;;;;;;;;21.41;52.75;100369.00;2074487;28;876;-60
2021/11/19 02:10:40;;;;;;;;;;;;;;;21.36;51.92;100371.00;2074646;28;1157;-60
2021/11/19 02:11:50;;;;;;;;;;;;;;;21.41;51.93;100373.50;2075433;28;780;-60
2021/11/19 02:13:06;;;;;;;;;;;;;;;21.43;50.63;100366.25;2075481;28;981;-60
2021/11/19 02:14:09;;;;;;;;;;;;;;;21.47;50.46;100365.16;2075173;28;1005;-61
2021/11/19 02:15:19;;;;;;;;;;;;;;;21.41;51.73;100360.91;2075522;28;966;-60
2021/11/19 02:16:49;;;;;;;;;;;;;;;21.40;52.30;100361.84;2075433;28;973;-60
2021/11/19 02:17:51;;;;;;;;;;;;;;;21.33;51.72;100365.75;2066216;28;1357;-60
2021/11/19 02:19:06;;;;;;;;;;;;;;;21.45;51.47;100367.91;2066454;28;738;-60
2021/11/19 02:20:11;;;;;;;;;;;;;;;21.42;52.53;100367.19;2066225;28;926;-61
2021/11/19 02:21:16;;;;;;;;;;;;;;;21.35;51.76;100361.16;2066479;28;885;-60
2021/11/19 02:22:19;;;;;;;;;;;;;;;21.28;52.41;100359.69;2058201;28;982;-61
2021/11/19 02:23:21;;;;;;;;;;;;;;;21.33;52.74;100344.19;2058222;28;1161;-60
2021/11/19 02:24:25;;;;;;;;;;;;;;;21.35;50.68;100345.00;2066362;28;855;-60
2021/11/19 02:25:30;;;;;;;;;;;;;;;21.42;52.05;100341.09;2066399;28;895;-60
2021/11/19 02:26:34;;;;;;;;;;;;;;;21.36;51.29;100348.59;2066373;28;784;-61
2021/11/19 02:27:40;;;;;;;;;;;;;;;21.38;51.24;100323.31;2066078;28;778;-61
2021/11/19 02:28:41;;;;;;;;;;;;;;;21.39;51.59;100330.47;2065960;28;1940;-61
2021/11/19 02:29:47;;;;;;;;;;;;;;;21.31;52.68;100329.91;2066293;28;795;-60
2021/11/19 02:30:50;;;;;;;;;;;;;;;21.39;51.57;100322.38;2066227;28;1327;-60
2021/11/19 02:31:53;;;;;;;;;;;;;;;21.38;52.67;100323.31;2065981;28;922;-60
2021/11/19 02:32:58;;;;;;;;;;;;;;;21.38;51.70;100317.94;2066340;28;824;-60
2021/11/19 02:34:00;;;;;;;;;;;;;;;21.38;52.20;100328.72;2066249;28;1009;-61
2021/11/19 02:35:01;;;;;;;;;;;;;;;21.31;52.68;100328.13;2066273;28;974;-61
2021/11/19 02:36:06;;;;;;;;;;;;;;;21.26;51.75;100329.25;2066221;28;1134;-61
2021/11/19 02:37:08;;;;;;;;;;;;;;;21.37;51.62;100324.25;2066272;28;933;-61
2021/11/19 02:38:10;;;;;;;;;;;;;;;21.39;50.96;100329.59;2066271;28;1179;-60
2021/11/19 02:39:16;;;;;;;;;;;;;;;21.44;52.95;100328.44;2066235;28;1953;-60
2021/11/19 02:40:20;;;;;;;;;;;;;;;21.48;50.56;100334.56;2065881;28;1221;-61
2021/11/19 02:41:22;;;;;;;;;;;;;;;21.42;51.50;100342.94;2066256;28;1162;-63
2021/11/19 02:42:28;;;;;;;;;;;;;;;21.43;50.08;100344.69;2066422;28;952;-60
2021/11/19 02:43:39;;;;;;;;;;;;;;;21.39;52.43;100357.41;2066181;28;813;-60
2021/11/19 02:44:40;;;;;;;;;;;;;;;21.40;51.74;100361.00;2066237;28;870;-60
2021/11/19 02:45:43;;;;;;;;;;;;;;;21.40;50.95;100358.28;2065734;28;1100;-61
2021/11/19 02:46:46;;;;;;;;;;;;;;;21.39;51.84;100362.78;2066195;28;1056;-61
2021/11/19 02:47:46;;;;;;;;;;;;;;;21.31;51.88;100363.13;2066201;28;893;-60
2021/11/19 02:48:46;;;;;;;;;;;;;;;21.35;52.25;100361.16;2066221;28;1151;-61
2021/11/19 02:49:46;;;;;;;;;;;;;;;21.38;51.26;100363.72;2066191;28;813;-61
2021/11/19 02:50:48;;;;;;;;;;;;;;;21.39;51.98;100361.94;2065872;28;863;-60
2021/11/19 02:51:48;;;;;;;;;;;;;;;21.40;51.72;100358.28;2066069;28;989;-61
2021/11/19 02:52:50;;;;;;;;;;;;;;;21.44;50.58;100358.06;2066180;28;1013;-61
2021/11/19 02:53:50;;;;;;;;;;;;;;;21.42;52.10;100365.34;2066133;28;998;-60
2021/11/19 02:54:51;;;;;;;;;;;;;;;21.38;50.79;100358.34;2069891;28;1041;-61
2021/11/19 02:55:54;;;;;;;;;;;;;;;21.41;51.12;100354.66;2075108;28;823;-61
2021/11/19 02:56:54;;;;;;;;;;;;;;;21.32;52.41;100354.13;2080379;28;1156;-60
2021/11/19 02:57:55;;;;;;;;;;;;;;;21.25;52.75;100351.75;2083276;28;901;-61
2021/11/19 02:59:00;;;;;;;;;;;;;;;21.28;51.50;100349.81;2083239;28;953;-61
2021/11/19 03:00:01;;;;;;;;;;;;;;;21.36;51.50;100349.44;2083272;28;1906;-61
2021/11/19 03:01:11;;;;;;;;;;;;;;;21.35;53.38;100350.41;2083249;28;922;-61
2021/11/19 03:02:13;;;;;;;;;;;;;;;21.25;52.05;100346.34;2082987;28;831;-61
2021/11/19 03:03:14;;;;;;;;;;;;;;;21.32;51.82;100347.84;2083342;28;894;-61
2021/11/19 03:04:16;;;;;;;;;;;;;;;21.21;51.94;100342.03;2083309;28;1017;-60
2021/11/19 03:05:17;;;;;;;;;;;;;;;21.26;50.83;100337.31;2083373;28;1102;-61
2021/11/19 03:06:17;;;;;;;;;;;;;;;21.30;51.61;100337.13;2083322;28;776;-61
2021/11/19 03:07:18;;;;;;;;;;;;;;;21.23;52.92;100340.16;2083244;28;847;-61
2021/11/19 03:08:19;;;;;;;;;;;;;;;21.28;51.46;100330.06;2083216;28;917;-60
2021/11/19 03:09:23;;;;;;;;;;;;;;;21.28;51.74;100322.88;2083469;28;924;-61
2021/11/19 03:10:26;;;;;;;;;;;;;;;21.32;51.89;100319.09;2083242;28;822;-61
2021/11/19 03:11:26;;;;;;;;;;;;;;;21.27;51.83;100322.91;2083229;28;1292;-61
2021/11/19 03:12:27;;;;;;;;;;;;;;;21.31;51.24;100319.16;2083088;28;977;-61
2021/11/19 03:13:29;;;;;;;;;;;;;;;21.38;51.85;100309.00;2083278;28;834;-61
2021/11/19 03:14:30;;;;;;;;;;;;;;;21.33;51.58;100312.75;2083226;28;840;-60
2021/11/19 03:15:32;;;;;;;;;;;;;;;21.35;51.19;100306.44;2082934;28;886;-60
2021/11/19 03:16:33;;;;;;;;;;;;;;;21.31;51.06;100300.28;2083190;28;860;-60
2021/11/19 03:17:33;;;;;;;;;;;;;;;21.23;51.87;100294.38;2083276;28;1042;-60
2021/11/19 03:18:35;;;;;;;;;;;;;;;21.25;52.57;100284.41;2083030;28;989;-61
2021/11/19 03:19:36;;;;;;;;;;;;;;;21.29;51.20;100277.94;2083121;28;1894;-60
2021/11/19 03:20:36;;;;;;;;;;;;;;;21.20;53.15;100270.28;2083240;28;1021;-60
2021/11/19 03:21:37;;;;;;;;;;;;;;;21.29;50.95;100276.13;2082823;28;961;-60
2021/11/19 03:22:37;;;;;;;;;;;;;;;21.26;52.63;100276.25;2083195;28;930;-60
2021/11/19 03:23:37;;;;;;;;;;;;;;;21.26;51.95;100269.97;2083085;28;1029;-60
2021/11/19 03:24:38;;;;;;;;;;;;;;;21.26;52.12;100280.75;2083226;28;905;-61
2021/11/19 03:25:39;;;;;;;;;;;;;;;21.22;52.23;100285.44;2082511;28;876;-60
2021/11/19 03:26:39;;;;;;;;;;;;;;;21.29;51.50;100288.69;2082406;28;795;-60
2021/11/19 03:27:39;;;;;;;;;;;;;;;21.27;51.98;100293.28;2083053;28;953;-61
2021/11/19 03:28:40;;;;;;;;;;;;;;;21.28;51.59;100284.25;2083163;28;1063;-60
2021/11/19 03:29:41;;;;;;;;;;;;;;;21.20;53.04;100283.75;2082950;28;1303;-60
2021/11/19 03:30:42;;;;;;;;;;;;;;;21.17;51.71;100285.66;2083103;28;902;-60
2021/11/19 03:31:44;;;;;;;;;;;;;;;21.18;53.43;100275.72;2083140;28;984;-60
2021/11/19 03:32:45;;;;;;;;;;;;;;;21.18;51.54;100281.13;2083168;28;1035;-60
2021/11/19 03:33:47;;;;;;;;;;;;;;;21.22;53.30;100284.53;2083090;28;803;-61
2021/11/19 03:34:47;;;;;;;;;;;;;;;21.25;53.04;100279.00;2083195;28;886;-60
2021/11/19 03:35:48;;;;;;;;;;;;;;;21.26;50.95;100287.03;2082754;28;854;-60
2021/11/19 03:36:51;;;;;;;;;;;;;;;21.23;52.51;100283.59;2082554;28;862;-60
2021/11/19 03:37:52;;;;;;;;;;;;;;;21.24;51.88;100285.34;2082489;28;994;-60
2021/11/19 03:38:55;;;;;;;;;;;;;;;21.23;51.75;100287.19;2090869;28;1474;-60
2021/11/19 03:39:55;;;;;;;;;;;;;;;21.25;51.38;100285.28;2092937;28;1886;-61
2021/11/19 03:40:56;;;;;;;;;;;;;;;21.28;53.10;100276.19;2092787;28;906;-61
2021/11/19 03:41:57;;;;;;;;;;;;;;;21.25;51.18;100279.00;2093057;28;980;-61
2021/11/19 03:43:00;;;;;;;;;;;;;;;21.27;51.44;100277.13;2093096;28;913;-60
2021/11/19 03:44:17;;;;;;;;;;;;;;;21.25;52.16;100276.31;2093049;28;795;-60
2021/11/19 03:45:19;;;;;;;;;;;;;;;21.31;51.21;100273.34;2093205;28;683;-60
2021/11/19 03:46:21;;;;;;;;;;;;;;;21.20;52.33;100271.16;2092935;28;984;-60
2021/11/19 03:47:24;;;;;;;;;;;;;;;21.16;51.13;100275.81;2092934;28;1036;-61
2021/11/19 03:48:25;;;;;;;;;;;;;;;21.14;52.18;100276.81;2093061;28;1002;-60
2021/11/19 03:49:26;;;;;;;;;;;;;;;21.15;51.87;100282.16;2093060;28;857;-60
2021/11/19 03:50:29;;;;;;;;;;;;;;;21.29;52.20;100283.31;2093004;28;870;-60
2021/11/19 03:51:35;;;;;;;;;;;;;;;21.32;51.71;100238.28;2092880;28;2062;-60
2021/11/19 03:52:36;;;;;;;;;;;;;;;21.25;51.56;100242.19;2093051;28;992;-60
2021/11/19 03:53:36;;;;;;;;;;;;;;;21.16;51.67;100248.88;2092785;28;889;-61
2021/11/19 03:54:37;;;;;;;;;;;;;;;21.21;52.50;100247.75;2092847;28;989;-60
2021/11/19 03:55:38;;;;;;;;;;;;;;;21.23;51.62;100253.97;2092907;28;984;-60
2021/11/19 03:56:39;;;;;;;;;;;;;;;21.22;52.20;100236.03;2092708;28;1164;-61
2021/11/19 03:57:39;;;;;;;;;;;;;;;21.26;52.12;100224.19;2092926;28;806;-60
2021/11/19 03:58:40;;;;;;;;;;;;;;;21.26;51.40;100264.59;2093045;28;755;-60
2021/11/19 03:59:41;;;;;;;;;;;;;;;21.20;52.87;100302.63;2092811;28;1965;-61
2021/11/19 04:00:46;;;;;;;;;;;;;;;21.20;51.65;100286.44;2092905;28;1041;-60
2021/11/19 04:01:47;;;;;;;;;;;;;;;21.25;52.62;100279.00;2092788;28;842;-60
2021/11/19 04:02:48;;;;;;;;;;;;;;;21.28;51.85;100274.38;2092096;28;1191;-60
2021/11/19 04:03:49;;;;;;;;;;;;;;;21.24;51.69;100255.72;2092366;28;787;-60
2021/11/19 04:04:49;;;;;;;;;;;;;;;;;;2092669;28;822;-60
2021/11/19 04:05:50;;;;;;;;;;;;;;;21.18;53.36;100257.78;2092800;28;858;-60
2021/11/19 04:06:50;;;;;;;;;;;;;;;21.17;52.28;100258.72;2092922;28;834;-60
2021/11/19 04:07:50;;;;;;;;;;;;;;;21.19;51.54;100261.31;2092689;28;954;-60
2021/11/19 04:08:51;;;;;;;;;;;;;;;21.16;51.78;100259.66;2092842;28;1067;-60
2021/11/19 04:09:51;;;;;;;;;;;;;;;21.27;51.22;100258.25;2092909;28;867;-60
2021/11/19 04:10:52;;;;;;;;;;;;;;;21.16;52.86;100253.38;2092494;28;788;-60
2021/11/19 04:11:52;;;;;;;;;;;;;;;21.19;52.92;100237.06;2092864;28;1059;-61
2021/11/19 04:12:52;;;;;;;;;;;;;;;21.18;52.53;100229.94;2092938;28;958;-60
2021/11/19 04:13:53;;;;;;;;;;;;;;;21.18;53.77;100232.63;2092693;28;823;-60
2021/11/19 04:14:53;;;;;;;;;;;;;;;21.18;51.88;100230.84;2092849;28;997;-61
2021/11/19 04:15:57;;;;;;;;;;;;;;;21.20;51.69;100232.59;2092766;28;858;-60
2021/11/19 04:16:58;;;;;;;;;;;;;;;21.23;52.19;100227.91;2092897;28;807;-60
2021/11/19 04:17:58;;;;;;;;;;;;;;;21.15;52.40;100224.69;2092800;28;783;-61
2021/11/19 04:18:59;;;;;;;;;;;;;;;21.22;51.80;100230.66;2092423;28;818;-60
2021/11/19 04:19:59;;;;;;;;;;;;;;;21.16;52.06;100232.72;2092756;28;1969;-60
2021/11/19 04:21:00;;;;;;;;;;;;;;;21.18;51.26;100232.63;2092909;28;799;-61
2021/11/19 04:22:03;;;;;;;;;;;;;;;21.20;52.17;100219.13;2092754;28;874;-60
2021/11/19 04:23:03;;;;;;;;;;;;;;;21.28;51.63;100206.13;2092817;28;942;-60
2021/11/19 04:24:05;;;;;;;;;;;;;;;21.31;51.35;100195.22;2092660;28;787;-60
2021/11/19 04:25:06;;;;;;;;;;;;;;;21.27;51.15;100197.19;2092807;28;1044;-60
2021/11/19 04:26:08;;;;;;;;;;;;;;;21.20;52.51;100195.72;2092743;28;1355;-60
2021/11/19 04:27:09;;;;;;;;;;;;;;;21.07;52.59;100191.84;2092365;28;786;-60
2021/11/19 04:28:09;;;;;;;;;;;;;;;21.23;51.20;100189.31;2092704;28;826;-60
2021/11/19 04:29:09;;;;;;;;;;;;;;;21.24;52.51;100194.66;2092713;28;929;-60
2021/11/19 04:30:11;;;;;;;;;;;;;;;21.27;52.62;100186.44;2092647;28;847;-61
2021/11/19 04:31:12;;;;;;;;;;;;;;;21.24;51.70;100189.25;2092750;28;1808;-60
2021/11/19 04:32:12;;;;;;;;;;;;;;;21.25;51.88;100182.94;2092396;28;874;-60
2021/11/19 04:33:13;;;;;;;;;;;;;;;21.31;51.82;100182.66;2092725;28;839;-60
2021/11/19 04:34:13;;;;;;;;;;;;;;;21.31;50.79;100181.75;2092604;28;795;-60
2021/11/19 04:35:14;;;;;;;;;;;;;;;21.26;51.94;100187.38;2092455;28;1047;-60
2021/11/19 04:36:14;;;;;;;;;;;;;;;21.29;50.69;100183.66;2092539;28;989;-60
2021/11/19 04:37:14;;;;;;;;;;;;;;;21.28;50.74;100182.78;2092696;28;1028;-60
2021/11/19 04:38:15;;;;;;;;;;;;;;;21.22;52.37;100185.75;2090197;28;1493;-60
2021/11/19 04:39:15;;;;;;;;;;;;;;;21.24;52.08;100191.06;2084465;28;1898;-61
2021/11/19 04:40:16;;;;;;;;;;;;;;;21.27;52.27;100190.91;2084401;28;846;-60
2021/11/19 04:41:17;;;;;;;;;;;;;;;21.24;50.80;100180.28;2084451;28;1064;-60
2021/11/19 04:42:18;;;;;;;;;;;;;;;21.22;51.56;100185.75;2084378;28;804;-61
2021/11/19 04:43:19;;;;;;;;;;;;;;;21.24;52.90;100185.69;2084157;28;1433;-60
2021/11/19 04:44:20;;;;;;;;;;;;;;;21.24;52.85;100181.19;2084237;28;859;-60
2021/11/19 04:45:22;;;;;;;;;;;;;;;21.25;51.54;100182.94;2084345;28;819;-60
2021/11/19 04:46:23;;;;;;;;;;;;;;;21.22;51.51;100184.88;2084122;28;787;-61
2021/11/19 04:47:23;;;;;;;;;;;;;;;21.29;52.03;100195.31;2084349;28;894;-60
2021/11/19 04:48:24;;;;;;;;;;;;;;;21.26;51.34;100191.88;2084133;28;850;-60
2021/11/19 04:49:24;;;;;;;;;;;;;;;21.26;50.73;100191.88;2084285;28;902;-61
2021/11/19 04:50:27;;;;;;;;;;;;;;;21.31;51.58;100192.53;2084183;28;990;-60
2021/11/19 04:51:29;;;;;;;;;;;;;;;21.22;51.67;100193.84;2084323;28;993;-60
2021/11/19 04:52:29;;;;;;;;;;;;;;;21.20;51.99;100181.41;2084419;28;795;-61
2021/11/19 04:53:30;;;;;;;;;;;;;;;21.18;52.30;100193.13;2084323;28;890;-61
2021/11/19 04:54:30;;;;;;;;;;;;;;;21.16;53.79;100195.00;2084246;28;716;-60
2021/11/19 04:55:31;;;;;;;;;;;;;;;21.15;51.81;100197.75;2084278;28;981;-60
2021/11/19 04:56:32;;;;;;;;;;;;;;;21.13;52.41;100200.53;2084034;28;1067;-60
2021/11/19 04:57:33;;;;;;;;;;;;;;;21.32;50.35;100202.34;2084214;28;846;-60
2021/11/19 04:58:33;;;;;;;;;;;;;;;21.29;50.92;100198.00;2084189;28;760;-60
2021/11/19 04:59:34;;;;;;;;;;;;;;;21.26;51.54;100197.25;2083976;28;1910;-60
2021/11/19 05:00:37;;;;;;;;;;;;;;;21.27;51.75;100193.63;2084073;28;818;-60
2021/11/19 05:01:40;;;;;;;;;;;;;;;21.24;52.28;100197.34;2084261;28;860;-60
2021/11/19 05:02:40;;;;;;;;;;;;;;;21.28;51.66;100196.25;2084194;28;1092;-60
2021/11/19 05:03:40;;;;;;;;;;;;;;;21.22;52.26;100185.75;2084206;28;1300;-60
2021/11/19 05:04:40;;;;;;;;;;;;;;;21.24;52.14;100189.25;2084244;28;1017;-61
2021/11/19 05:05:42;;;;;;;;;;;;;;;21.99;49.78;100180.38;2083840;28;1037;-60
2021/11/19 05:06:42;;;;;;;;;;;;;;;22.23;50.38;100171.97;2084214;28;922;-60
2021/11/19 05:07:42;;;;;;;;;;;;;;;22.38;50.01;100176.59;2084132;28;850;-61
2021/11/19 05:08:43;;;;;;;;;;;;;;;22.46;49.39;100168.13;2084127;28;981;-60
2021/11/19 05:09:43;;;;;;;;;;;;;;;22.59;48.03;100166.53;2084117;28;1149;-60
2021/11/19 05:10:44;;;;;;;;;;;;;;;22.56;49.66;100172.09;2084090;28;1248;-61
2021/11/19 05:11:48;;;;;;;;;;;;;;;22.69;49.33;100171.44;2084136;28;763;-60
2021/11/19 05:12:50;;;;;;;;;;;;;;;22.79;49.25;100165.47;2084169;28;803;-60
2021/11/19 05:13:51;;;;;;;;;;;;;;;22.75;49.14;100177.38;2084092;28;807;-61
2021/11/19 05:14:51;;;;;;;;;;;;;;;22.80;50.09;100171.75;2084106;28;816;-60
2021/11/19 05:15:52;;;;;;;;;;;;;;;22.80;49.80;100169.91;2084145;28;830;-60
2021/11/19 05:16:53;;;;;;;;;;;;;;;22.88;48.38;100165.94;2083936;28;819;-60
2021/11/19 05:17:53;;;;;;;;;;;;;;;23.00;47.79;100167.09;2084099;28;935;-60
2021/11/19 05:18:53;;;;;;;;;;;;;;;23.05;48.62;100162.31;2084063;28;786;-59
2021/11/19 05:19:54;;;;;;;;;;;;;;;23.13;47.93;100164.63;2083787;28;1937;-58
2021/11/19 05:20:55;;;;;;;;;;;;;;;23.21;47.67;100160.53;2084122;28;873;-60
2021/11/19 05:21:55;;;;;;;;;;;;;;;23.20;48.26;100161.47;2084033;28;763;-59
2021/11/19 05:22:55;;;;;;;;;;;;;;;23.33;47.70;100155.44;2084108;28;901;-58
2021/11/19 05:23:56;;;;;;;;;;;;;;;23.34;47.97;100159.88;2084117;28;1296;-58
2021/11/19 05:24:56;;;;;;;;;;;;;;;23.21;48.79;100154.25;2083747;28;969;-57
2021/11/19 05:25:56;;;;;;;;;;;;;;;23.30;46.88;100151.06;2084061;28;771;-57